createdAt,value
2023-04-18T00:48:55.098Z,11.75
2023-04-18T00:51:40.500Z,12.90
2023-04-18T00:54:26.187Z,13.23
2023-04-18T00:57:13.749Z,14.30
2023-04-18T01:00:10.044Z,11.55
2023-04-18T01:46:51.866Z,13.70
2023-04-18T01:49:37.197Z,11.88
2023-04-18T01:52:22.614Z,11.95
2023-04-18T01:55:08.612Z,12.07
2023-04-18T01:57:54.062Z,11.00
2023-04-18T02:48:09.196Z,9.35
2023-04-18T02:51:01.067Z,10.45
2023-04-18T02:53:46.708Z,10.88
2023-04-18T02:56:32.131Z,10.83
2023-04-18T02:59:36.263Z,9.52
2023-04-18T03:46:30.061Z,10.82
2023-04-18T03:49:16.263Z,11.93
2023-04-18T03:52:01.688Z,9.60
2023-04-18T03:54:47.004Z,14.02
2023-04-18T03:57:35.060Z,9.60
2023-04-18T04:47:52.368Z,8.93
2023-04-18T04:50:40.595Z,9.25
2023-04-18T04:53:26.793Z,10.02
2023-04-18T04:56:12.773Z,10.50
2023-04-18T04:58:57.860Z,9.40
2023-04-18T05:01:49.307Z,9.27
2023-04-18T05:04:34.810Z,8.27
2023-04-18T05:07:20.132Z,8.43
2023-04-18T05:10:05.183Z,8.68
2023-04-18T05:12:50.458Z,8.10
2023-04-18T05:15:35.784Z,8.52
2023-04-18T05:18:20.872Z,10.32
2023-04-18T05:21:06.186Z,9.10
2023-04-18T05:23:51.326Z,9.15
2023-04-18T05:26:36.218Z,7.17
2023-04-18T05:29:21.568Z,8.13
2023-04-18T05:32:06.802Z,8.88
2023-04-18T05:34:52.099Z,9.25
2023-04-18T05:37:37.233Z,9.50
2023-04-18T05:40:22.053Z,9.83
2023-04-18T05:43:06.914Z,8.02
2023-04-18T05:45:56.517Z,8.80
2023-04-18T05:48:42.888Z,11.30
2023-04-18T05:51:28.653Z,11.00
2023-04-18T05:54:13.973Z,10.87
2023-04-18T05:56:59.589Z,13.65
2023-04-18T05:59:44.445Z,14.90
2023-04-18T06:02:29.362Z,9.30
2023-04-18T06:05:14.914Z,12.25
2023-04-18T06:07:59.904Z,15.07
2023-04-18T06:10:45.422Z,10.48
2023-04-18T06:13:31.124Z,12.90
2023-04-18T06:16:16.616Z,11.63
2023-04-18T06:19:03.178Z,14.73
2023-04-18T06:21:48.473Z,11.10
2023-04-18T06:24:33.508Z,12.02
2023-04-18T06:27:30.480Z,10.50
2023-04-18T06:30:16.027Z,9.98
2023-04-18T06:33:01.148Z,16.20
2023-04-18T06:35:46.329Z,11.87
2023-04-18T06:38:32.069Z,10.75
2023-04-18T06:41:17.478Z,13.55
2023-04-18T06:44:04.679Z,10.05
2023-04-18T06:46:49.873Z,9.38
2023-04-18T06:49:34.674Z,11.37
2023-04-18T06:52:20.193Z,11.00
2023-04-18T06:55:06.201Z,8.82
2023-04-18T06:57:51.620Z,8.65
2023-04-18T07:00:36.835Z,11.35
2023-04-18T07:03:22.008Z,8.77
2023-04-18T07:06:08.877Z,7.72
2023-04-18T07:08:55.938Z,8.43
2023-04-18T07:11:41.118Z,7.43
2023-04-18T07:14:26.259Z,9.13
2023-04-18T07:17:11.530Z,8.37
2023-04-18T07:19:57.013Z,7.35
2023-04-18T07:22:42.276Z,7.40
2023-04-18T07:25:27.859Z,7.47
2023-04-18T07:28:13.166Z,7.47
2023-04-18T07:30:58.489Z,9.40
2023-04-18T07:33:43.653Z,10.60
2023-04-18T07:36:28.979Z,9.30
2023-04-18T07:39:13.799Z,8.43
2023-04-18T07:41:58.850Z,8.32
2023-04-18T07:44:44.536Z,8.83
2023-04-18T07:47:31.451Z,6.65
2023-04-18T07:50:17.395Z,8.05
2023-04-18T07:53:03.332Z,7.50
2023-04-18T07:55:48.302Z,6.93
2023-04-18T07:58:36.434Z,8.67
2023-04-18T08:01:24.157Z,7.68
2023-04-18T08:04:09.263Z,7.38
2023-04-18T08:06:57.003Z,7.63
2023-04-18T08:09:42.197Z,6.60
2023-04-18T08:12:27.543Z,6.70
2023-04-18T08:15:12.446Z,7.53
2023-04-18T08:17:57.613Z,7.68
2023-04-18T08:20:42.743Z,7.13
2023-04-18T08:23:27.635Z,6.82
2023-04-18T08:26:12.625Z,7.00
2023-04-18T08:28:57.851Z,8.02
2023-04-18T08:31:42.796Z,9.60
2023-04-18T08:34:29.290Z,6.88
2023-04-18T08:37:14.391Z,6.95
2023-04-18T08:39:59.407Z,6.60
2023-04-18T08:42:47.372Z,6.30
2023-04-18T08:45:33.341Z,6.30
2023-04-18T08:48:18.639Z,6.40
2023-04-18T08:51:04.989Z,6.43
2023-04-18T08:53:50.618Z,5.67
2023-04-18T08:56:37.417Z,6.93
2023-04-18T08:59:23.792Z,6.40
2023-04-18T09:02:10.179Z,6.45
2023-04-18T09:04:55.829Z,7.65
2023-04-18T09:07:41.363Z,6.37
2023-04-18T09:10:30.925Z,5.93
2023-04-18T09:13:36.303Z,6.53
2023-04-18T09:16:22.993Z,6.28
2023-04-18T09:19:09.696Z,6.65
2023-04-18T09:21:59.082Z,6.83
2023-04-18T09:24:53.189Z,6.50
2023-04-18T09:27:38.114Z,6.65
2023-04-18T09:30:34.143Z,5.45
2023-04-18T09:33:32.379Z,7.38
2023-04-18T09:36:18.527Z,6.17
2023-04-18T09:39:04.136Z,6.05
2023-04-18T09:41:58.949Z,7.38
2023-04-18T09:44:58.349Z,6.72
2023-04-18T09:47:43.504Z,6.80
2023-04-18T09:50:28.679Z,6.30
2023-04-18T09:53:17.743Z,5.35
2023-04-18T09:56:05.252Z,6.28
2023-04-18T09:58:55.614Z,6.20
2023-04-18T10:01:41.073Z,6.40
2023-04-18T10:04:27.332Z,5.77
2023-04-18T10:07:12.953Z,6.82
2023-04-18T10:09:57.926Z,6.38
2023-04-18T10:12:43.276Z,6.68
2023-04-18T10:15:29.498Z,6.07
2023-04-18T10:18:15.654Z,6.03
2023-04-18T10:21:01.983Z,5.80
2023-04-18T10:23:48.963Z,6.20
2023-04-18T10:26:50.328Z,7.07
2023-04-18T10:29:54.219Z,6.22
2023-04-18T10:32:39.335Z,6.30
2023-04-18T10:35:24.599Z,6.90
2023-04-18T10:38:16.533Z,6.53
2023-04-18T10:41:17.029Z,6.22
2023-04-18T10:44:08.904Z,6.00
2023-04-18T10:47:14.469Z,6.20
2023-04-18T10:50:01.539Z,6.30
2023-04-18T10:52:46.705Z,6.90
2023-04-18T10:55:31.618Z,6.15
2023-04-18T10:58:16.701Z,6.43
2023-04-18T11:01:03.320Z,6.67
2023-04-18T11:03:48.862Z,6.40
2023-04-18T11:06:33.925Z,6.65
2023-04-18T11:09:18.757Z,6.75
2023-04-18T11:12:07.891Z,6.78
2023-04-18T11:14:53.093Z,7.10
2023-04-18T11:17:40.259Z,6.97
2023-04-18T11:20:25.699Z,6.35
2023-04-18T11:23:19.840Z,5.30
2023-04-18T11:26:07.459Z,6.45
2023-04-18T11:28:56.279Z,5.87
2023-04-18T11:31:41.720Z,5.93
2023-04-18T11:34:30.965Z,6.18
2023-04-18T11:37:16.332Z,7.25
2023-04-18T11:40:02.236Z,6.15
2023-04-18T11:42:47.826Z,6.17
2023-04-18T11:45:33.303Z,7.75
2023-04-18T11:48:19.036Z,7.72
2023-04-18T11:51:04.684Z,7.15
2023-04-18T11:53:50.063Z,6.40
2023-04-18T11:56:36.638Z,7.17
2023-04-18T11:59:22.492Z,6.53
2023-04-18T12:02:16.336Z,6.60
2023-04-18T12:05:02.484Z,7.95
2023-04-18T12:07:48.071Z,6.63
2023-04-18T12:10:33.426Z,6.17
2023-04-18T12:13:19.322Z,8.70
2023-04-18T12:16:04.992Z,6.60
2023-04-18T12:18:50.949Z,6.40
2023-04-18T12:21:36.502Z,6.38
2023-04-18T12:24:26.672Z,6.00
2023-04-18T12:27:12.123Z,7.40
2023-04-18T12:29:57.335Z,6.93
2023-04-18T12:32:44.835Z,6.20
2023-04-18T12:35:30.754Z,5.93
2023-04-18T12:38:25.087Z,5.90
2023-04-18T12:41:10.291Z,6.15
2023-04-18T12:43:55.533Z,5.72
2023-04-18T12:46:40.768Z,5.68
2023-04-18T12:49:26.133Z,5.25
2023-04-18T12:52:11.031Z,7.27
2023-04-18T12:54:56.836Z,5.47
2023-04-18T12:57:42.586Z,5.55
2023-04-18T13:00:29.518Z,6.63
2023-04-18T13:03:14.722Z,6.10
2023-04-18T13:06:00.021Z,6.23
2023-04-18T13:08:47.522Z,6.18
2023-04-18T13:11:32.829Z,5.40
2023-04-18T13:14:17.596Z,5.80
2023-04-18T13:17:03.132Z,6.97
2023-04-18T13:19:48.978Z,5.70
2023-04-18T13:22:33.921Z,6.30
2023-04-18T13:25:19.138Z,5.40
2023-04-18T13:28:03.948Z,5.57
2023-04-18T13:30:49.016Z,5.20
2023-04-18T13:33:34.219Z,6.90
2023-04-18T13:36:19.031Z,7.38
2023-04-18T13:39:05.068Z,6.68
2023-04-18T13:41:49.869Z,6.78
2023-04-18T13:44:35.744Z,5.50
2023-04-18T13:47:20.804Z,6.80
2023-04-18T13:50:06.512Z,7.38
2023-04-18T13:52:53.544Z,5.40
2023-04-18T13:55:38.903Z,5.53
2023-04-18T13:58:23.849Z,6.47
2023-04-18T14:01:08.944Z,6.10
2023-04-18T14:03:54.743Z,5.70
2023-04-18T14:06:40.514Z,6.45
2023-04-18T14:09:26.734Z,5.70
2023-04-18T14:12:11.974Z,5.85
2023-04-18T14:14:57.129Z,6.90
2023-04-18T14:17:44.133Z,5.07
2023-04-18T14:20:34.352Z,5.47
2023-04-18T14:23:19.444Z,6.25
2023-04-18T14:26:05.156Z,5.75
2023-04-18T14:28:50.719Z,6.03
2023-04-18T14:31:35.902Z,5.72
2023-04-18T14:34:21.160Z,5.55
2023-04-18T14:37:06.671Z,5.85
2023-04-18T14:39:51.780Z,5.85
2023-04-18T14:42:37.766Z,6.50
2023-04-18T14:45:22.905Z,6.13
2023-04-18T14:48:09.998Z,5.80
2023-04-18T14:51:03.057Z,5.97
2023-04-18T14:53:48.292Z,5.65
2023-04-18T14:56:33.540Z,9.90
2023-04-18T14:59:19.333Z,5.57
2023-04-18T15:02:05.126Z,5.97
2023-04-18T15:04:50.851Z,6.07
2023-04-18T15:07:37.701Z,5.10
2023-04-18T15:10:22.946Z,5.43
2023-04-18T15:13:11.495Z,6.03
2023-04-18T15:15:57.086Z,5.50
2023-04-18T15:18:43.517Z,6.07
2023-04-18T15:21:28.848Z,5.78
2023-04-18T15:24:14.491Z,6.60
2023-04-18T15:27:00.059Z,5.78
2023-04-18T15:29:45.519Z,5.60
2023-04-18T15:32:31.006Z,6.05
2023-04-18T15:35:16.521Z,5.40
2023-04-18T15:38:02.041Z,6.07
2023-04-18T15:40:47.174Z,5.88
2023-04-18T15:43:32.648Z,6.53
2023-04-18T15:46:18.008Z,6.03
2023-04-18T15:49:03.277Z,5.68
2023-04-18T15:51:48.099Z,5.57
2023-04-18T15:54:33.196Z,6.10
2023-04-18T15:57:18.322Z,7.03
2023-04-18T16:00:09.297Z,6.63
2023-04-18T16:02:54.792Z,5.82
2023-04-18T16:05:40.157Z,5.60
2023-04-18T16:08:25.455Z,5.80
2023-04-18T16:11:10.298Z,5.43
2023-04-18T16:13:56.038Z,6.20
2023-04-18T16:16:41.005Z,9.00
2023-04-18T16:19:26.483Z,6.50
2023-04-18T16:22:12.594Z,5.88
2023-04-18T16:24:57.674Z,6.43
2023-04-18T16:27:42.829Z,9.52
2023-04-18T16:30:28.101Z,9.48
2023-04-18T16:33:13.493Z,6.90
2023-04-18T16:36:00.360Z,6.05
2023-04-18T16:38:45.367Z,7.00
2023-04-18T16:41:30.711Z,8.43
2023-04-18T16:44:16.145Z,5.82
2023-04-18T16:47:01.573Z,6.73
2023-04-18T16:49:47.703Z,7.03
2023-04-18T16:52:32.919Z,9.70
2023-04-18T16:55:18.366Z,6.28
2023-04-18T16:58:03.584Z,6.95
2023-04-18T17:00:49.064Z,6.90
2023-04-18T17:03:34.604Z,6.22
2023-04-18T17:06:22.506Z,6.63
2023-04-18T17:09:08.869Z,6.63
2023-04-18T17:11:54.148Z,6.70
2023-04-18T17:14:39.051Z,5.90
2023-04-18T17:17:23.942Z,6.05
2023-04-18T17:20:09.718Z,8.10
2023-04-18T17:22:55.102Z,7.25
2023-04-18T17:25:40.503Z,7.95
2023-04-18T17:28:25.307Z,6.53
2023-04-18T17:31:10.309Z,5.90
2023-04-18T17:33:56.218Z,6.93
2023-04-18T17:36:41.450Z,5.97
2023-04-18T17:39:26.975Z,7.13
2023-04-18T17:42:12.225Z,7.13
2023-04-18T17:44:57.318Z,5.80
2023-04-18T17:47:42.594Z,6.45
2023-04-18T17:50:27.682Z,7.30
2023-04-18T17:53:12.812Z,9.32
2023-04-18T17:56:01.122Z,11.23
2023-04-18T17:58:47.140Z,8.30
2023-04-18T18:01:32.839Z,6.03
2023-04-18T18:04:19.444Z,7.28
2023-04-18T18:07:05.197Z,5.95
2023-04-18T18:09:50.102Z,8.10
2023-04-18T18:12:36.209Z,6.20
2023-04-18T18:15:21.165Z,8.77
2023-04-18T18:18:06.631Z,7.90
2023-04-18T18:20:51.583Z,7.68
2023-04-18T18:23:36.294Z,6.17
2023-04-18T18:26:21.717Z,7.05
2023-04-18T18:29:09.693Z,7.07
2023-04-18T18:31:54.562Z,6.10
2023-04-18T18:34:39.716Z,6.15
2023-04-18T18:37:25.977Z,6.63
2023-04-18T18:40:11.367Z,6.45
2023-04-18T18:42:57.251Z,10.65
2023-04-18T18:45:42.459Z,8.13
2023-04-18T18:48:27.885Z,7.13
2023-04-18T18:51:12.901Z,7.00
2023-04-18T18:53:58.274Z,7.05
2023-04-18T18:56:44.205Z,8.90
2023-04-18T18:59:29.514Z,7.60
2023-04-18T19:02:14.583Z,11.73
2023-04-18T19:05:00.163Z,7.93
2023-04-18T19:07:45.658Z,7.85
2023-04-18T19:10:31.096Z,8.90
2023-04-18T19:13:16.573Z,9.15
2023-04-18T19:16:02.073Z,7.90
2023-04-18T19:18:49.111Z,7.13
2023-04-18T19:21:34.295Z,7.20
2023-04-18T19:24:19.288Z,7.40
2023-04-18T19:27:05.853Z,7.90
2023-04-18T19:29:51.253Z,6.18
2023-04-18T19:32:36.382Z,7.20
2023-04-18T19:35:21.792Z,20.02
2023-04-18T19:38:06.672Z,8.13
2023-04-18T19:40:51.658Z,7.68
2023-04-18T19:43:38.385Z,7.93
2023-04-18T19:46:23.631Z,8.93
2023-04-18T19:49:09.083Z,8.02
2023-04-18T19:51:54.252Z,7.95
2023-04-18T19:54:39.035Z,14.50
2023-04-18T19:57:25.642Z,8.82
2023-04-18T20:00:12.102Z,8.13
2023-04-18T20:03:00.335Z,8.65
2023-04-18T20:05:45.831Z,8.10
2023-04-18T20:08:36.185Z,6.82
2023-04-18T20:11:22.089Z,8.88
2023-04-18T20:14:07.137Z,7.40
2023-04-18T20:16:52.271Z,9.02
2023-04-18T20:19:37.481Z,8.77
2023-04-18T20:22:25.659Z,8.70
2023-04-18T20:25:10.999Z,9.07
2023-04-18T20:27:56.385Z,11.93
2023-04-18T20:30:41.830Z,10.35
2023-04-18T20:33:27.609Z,10.75
2023-04-18T20:36:14.027Z,8.15
2023-04-18T20:39:02.370Z,8.90
2023-04-18T20:41:51.338Z,7.10
2023-04-18T20:44:36.578Z,8.88
2023-04-18T20:47:21.437Z,7.47
2023-04-18T20:50:07.078Z,7.60
2023-04-18T20:52:51.876Z,8.15
2023-04-18T20:55:36.904Z,8.13
2023-04-18T20:58:22.144Z,13.70
2023-04-18T21:01:07.588Z,7.72
2023-04-18T21:03:52.920Z,9.13
2023-04-18T21:06:38.202Z,7.82
2023-04-18T21:09:23.309Z,8.87
2023-04-18T21:12:08.619Z,8.98
2023-04-18T21:14:53.449Z,9.48
2023-04-18T21:17:38.443Z,7.72
2023-04-18T21:20:23.628Z,9.48
2023-04-18T21:23:08.564Z,8.23
2023-04-18T21:25:53.380Z,9.88
2023-04-18T21:28:58.175Z,8.93
2023-04-18T21:31:43.462Z,8.48
2023-04-18T21:34:28.895Z,15.07
2023-04-18T21:37:14.029Z,10.47
2023-04-18T21:40:00.263Z,8.13
2023-04-18T21:42:46.193Z,10.02
2023-04-18T21:45:33.656Z,18.50
2023-04-18T21:48:19.126Z,9.52
2023-04-18T21:51:03.902Z,8.83
2023-04-18T21:53:48.956Z,7.00
2023-04-18T21:56:33.683Z,7.88
2023-04-18T21:59:18.724Z,8.05
2023-04-18T22:02:03.589Z,7.88
2023-04-18T22:04:49.042Z,9.07
2023-04-18T22:07:36.793Z,7.18
2023-04-18T22:10:28.925Z,9.13
2023-04-18T22:13:13.675Z,7.43
2023-04-18T22:16:03.717Z,10.35
2023-04-18T22:18:49.327Z,8.60
2023-04-18T22:21:34.581Z,8.63
2023-04-18T22:24:19.666Z,7.70
2023-04-18T22:27:04.703Z,9.77
2023-04-18T22:29:49.531Z,9.35
2023-04-18T22:32:34.399Z,8.83
2023-04-18T22:35:19.870Z,8.13
2023-04-18T22:38:06.085Z,7.47
2023-04-18T22:40:50.977Z,8.68
2023-04-18T22:43:36.555Z,6.95
2023-04-18T22:46:21.689Z,10.97
2023-04-18T22:49:07.273Z,7.78
2023-04-18T22:51:54.317Z,8.23
2023-04-18T22:54:40.045Z,7.90
2023-04-18T22:57:24.969Z,7.88
2023-04-18T23:45:55.743Z,7.60
2023-04-18T23:48:41.492Z,10.40
2023-04-18T23:51:27.693Z,7.05
2023-04-18T23:54:12.972Z,8.23
2023-04-18T23:56:58.299Z,8.70
2023-04-18T23:59:43.343Z,7.77
